sensor_id;sensor_type;location;lat;lon;timestamp;P1;durP1;ratioP1;P2;durP2;ratioP2
8349;SDS011;60699;48.946;8.412;2022-07-29T00:00:14;4.47;;;4.07;;
8349;SDS011;60699;48.946;8.412;2022-07-29T00:02:41;4.67;;;4.10;;
8349;SDS011;60699;48.946;8.412;2022-07-29T00:05:08;4.80;;;4.37;;
8349;SDS011;60699;48.946;8.412;2022-07-29T00:07:38;4.70;;;4.30;;
8349;SDS011;60699;48.946;8.412;2022-07-29T00:10:07;4.50;;;4.20;;
8349;SDS011;60699;48.946;8.412;2022-07-29T00:12:34;4.90;;;4.43;;
8349;SDS011;60699;48.946;8.412;2022-07-29T00:15:01;4.73;;;4.30;;
8349;SDS011;60699;48.946;8.412;2022-07-29T00:17:28;6.67;;;4.70;;
8349;SDS011;60699;48.946;8.412;2022-07-29T00:19:55;5.17;;;4.73;;
8349;SDS011;60699;48.946;8.412;2022-07-29T00:22:22;4.77;;;4.40;;
8349;SDS011;60699;48.946;8.412;2022-07-29T00:24:49;4.93;;;4.60;;
8349;SDS011;60699;48.946;8.412;2022-07-29T00:27:17;4.53;;;4.13;;
8349;SDS011;60699;48.946;8.412;2022-07-29T00:29:45;5.83;;;5.23;;
8349;SDS011;60699;48.946;8.412;2022-07-29T00:32:12;5.40;;;4.90;;
8349;SDS011;60699;48.946;8.412;2022-07-29T00:34:39;4.63;;;4.23;;
8349;SDS011;60699;48.946;8.412;2022-07-29T00:37:23;6.57;;;4.97;;
8349;SDS011;60699;48.946;8.412;2022-07-29T00:39:51;4.50;;;4.10;;
8349;SDS011;60699;48.946;8.412;2022-07-29T00:42:19;4.43;;;4.10;;
8349;SDS011;60699;48.946;8.412;2022-07-29T00:44:46;4.50;;;4.20;;
8349;SDS011;60699;48.946;8.412;2022-07-29T00:47:13;4.93;;;4.47;;
8349;SDS011;60699;48.946;8.412;2022-07-29T00:49:41;4.93;;;4.40;;
8349;SDS011;60699;48.946;8.412;2022-07-29T00:52:08;4.90;;;4.40;;
8349;SDS011;60699;48.946;8.412;2022-07-29T00:54:36;5.47;;;4.97;;
8349;SDS011;60699;48.946;8.412;2022-07-29T00:57:04;6.03;;;4.90;;
8349;SDS011;60699;48.946;8.412;2022-07-29T00:59:34;4.70;;;4.07;;
8349;SDS011;60699;48.946;8.412;2022-07-29T01:02:01;4.33;;;4.03;;
8349;SDS011;60699;48.946;8.412;2022-07-29T01:04:28;5.00;;;4.60;;
8349;SDS011;60699;48.946;8.412;2022-07-29T01:06:55;4.90;;;4.40;;
8349;SDS011;60699;48.946;8.412;2022-07-29T01:09:22;7.57;;;4.37;;
8349;SDS011;60699;48.946;8.412;2022-07-29T01:11:50;5.43;;;4.40;;
8349;SDS011;60699;48.946;8.412;2022-07-29T01:14:17;4.70;;;4.30;;
8349;SDS011;60699;48.946;8.412;2022-07-29T01:16:51;4.73;;;4.23;;
8349;SDS011;60699;48.946;8.412;2022-07-29T01:19:27;5.30;;;4.80;;
8349;SDS011;60699;48.946;8.412;2022-07-29T01:21:57;4.70;;;4.20;;
8349;SDS011;60699;48.946;8.412;2022-07-29T01:24:32;4.60;;;4.30;;
8349;SDS011;60699;48.946;8.412;2022-07-29T01:27:03;4.63;;;4.20;;
8349;SDS011;60699;48.946;8.412;2022-07-29T01:29:33;4.07;;;3.77;;
8349;SDS011;60699;48.946;8.412;2022-07-29T01:32:03;5.03;;;4.63;;
8349;SDS011;60699;48.946;8.412;2022-07-29T01:34:35;5.10;;;4.70;;
8349;SDS011;60699;48.946;8.412;2022-07-29T01:37:08;5.30;;;4.83;;
8349;SDS011;60699;48.946;8.412;2022-07-29T01:39:36;6.27;;;4.67;;
8349;SDS011;60699;48.946;8.412;2022-07-29T01:42:06;6.27;;;4.50;;
8349;SDS011;60699;48.946;8.412;2022-07-29T01:44:37;4.57;;;4.17;;
8349;SDS011;60699;48.946;8.412;2022-07-29T01:47:09;6.00;;;5.03;;
8349;SDS011;60699;48.946;8.412;2022-07-29T01:49:39;4.50;;;4.13;;
8349;SDS011;60699;48.946;8.412;2022-07-29T01:52:08;4.33;;;3.93;;
8349;SDS011;60699;48.946;8.412;2022-07-29T01:54:38;4.70;;;4.30;;
8349;SDS011;60699;48.946;8.412;2022-07-29T01:57:08;4.80;;;4.40;;
8349;SDS011;60699;48.946;8.412;2022-07-29T01:59:37;5.00;;;4.70;;
8349;SDS011;60699;48.946;8.412;2022-07-29T02:02:05;5.03;;;4.63;;
8349;SDS011;60699;48.946;8.412;2022-07-29T02:04:33;4.80;;;4.40;;
8349;SDS011;60699;48.946;8.412;2022-07-29T02:07:03;4.27;;;3.97;;
8349;SDS011;60699;48.946;8.412;2022-07-29T02:09:31;6.50;;;3.97;;
8349;SDS011;60699;48.946;8.412;2022-07-29T02:11:59;4.73;;;4.33;;
8349;SDS011;60699;48.946;8.412;2022-07-29T02:14:27;5.13;;;4.60;;
8349;SDS011;60699;48.946;8.412;2022-07-29T02:16:56;5.13;;;4.40;;
8349;SDS011;60699;48.946;8.412;2022-07-29T02:19:25;4.70;;;4.40;;
8349;SDS011;60699;48.946;8.412;2022-07-29T02:21:53;4.93;;;4.27;;
8349;SDS011;60699;48.946;8.412;2022-07-29T02:24:21;5.77;;;5.27;;
8349;SDS011;60699;48.946;8.412;2022-07-29T02:26:49;5.33;;;4.50;;
8349;SDS011;60699;48.946;8.412;2022-07-29T02:29:18;4.60;;;4.20;;
8349;SDS011;60699;48.946;8.412;2022-07-29T02:31:46;7.87;;;4.93;;
8349;SDS011;60699;48.946;8.412;2022-07-29T02:34:15;5.27;;;4.73;;
8349;SDS011;60699;48.946;8.412;2022-07-29T02:36:43;6.37;;;5.83;;
8349;SDS011;60699;48.946;8.412;2022-07-29T02:39:11;5.63;;;4.47;;
8349;SDS011;60699;48.946;8.412;2022-07-29T02:41:40;5.30;;;4.80;;
8349;SDS011;60699;48.946;8.412;2022-07-29T02:44:09;5.20;;;4.80;;
8349;SDS011;60699;48.946;8.412;2022-07-29T02:46:37;5.40;;;4.90;;
8349;SDS011;60699;48.946;8.412;2022-07-29T02:49:09;7.07;;;4.70;;
8349;SDS011;60699;48.946;8.412;2022-07-29T02:51:41;5.33;;;4.93;;
8349;SDS011;60699;48.946;8.412;2022-07-29T02:54:10;5.67;;;5.17;;
8349;SDS011;60699;48.946;8.412;2022-07-29T02:56:37;6.20;;;5.10;;
8349;SDS011;60699;48.946;8.412;2022-07-29T02:59:07;5.23;;;4.73;;
8349;SDS011;60699;48.946;8.412;2022-07-29T03:01:35;5.90;;;5.30;;
8349;SDS011;60699;48.946;8.412;2022-07-29T03:04:05;6.40;;;4.47;;
8349;SDS011;60699;48.946;8.412;2022-07-29T03:06:33;5.47;;;4.63;;
8349;SDS011;60699;48.946;8.412;2022-07-29T03:09:03;5.30;;;4.90;;
8349;SDS011;60699;48.946;8.412;2022-07-29T03:11:31;4.70;;;4.30;;
8349;SDS011;60699;48.946;8.412;2022-07-29T03:13:59;5.47;;;5.00;;
8349;SDS011;60699;48.946;8.412;2022-07-29T03:16:26;5.63;;;5.13;;
8349;SDS011;60699;48.946;8.412;2022-07-29T03:18:54;4.50;;;4.20;;
8349;SDS011;60699;48.946;8.412;2022-07-29T03:21:21;4.73;;;4.10;;
8349;SDS011;60699;48.946;8.412;2022-07-29T03:23:48;4.70;;;4.23;;
8349;SDS011;60699;48.946;8.412;2022-07-29T03:26:17;4.80;;;4.40;;
8349;SDS011;60699;48.946;8.412;2022-07-29T03:28:45;4.73;;;4.23;;
8349;SDS011;60699;48.946;8.412;2022-07-29T03:31:12;6.30;;;4.53;;
8349;SDS011;60699;48.946;8.412;2022-07-29T03:33:39;5.37;;;4.87;;
8349;SDS011;60699;48.946;8.412;2022-07-29T03:36:06;5.60;;;5.10;;
8349;SDS011;60699;48.946;8.412;2022-07-29T03:38:34;4.93;;;4.23;;
8349;SDS011;60699;48.946;8.412;2022-07-29T03:41:03;6.10;;;4.87;;
8349;SDS011;60699;48.946;8.412;2022-07-29T03:43:34;4.97;;;4.57;;
8349;SDS011;60699;48.946;8.412;2022-07-29T03:46:02;5.10;;;4.60;;
8349;SDS011;60699;48.946;8.412;2022-07-29T03:48:31;5.43;;;4.80;;
8349;SDS011;60699;48.946;8.412;2022-07-29T03:51:00;5.23;;;4.80;;
8349;SDS011;60699;48.946;8.412;2022-07-29T03:53:27;5.20;;;4.83;;
8349;SDS011;60699;48.946;8.412;2022-07-29T03:55:56;5.20;;;4.70;;
8349;SDS011;60699;48.946;8.412;2022-07-29T03:58:25;4.30;;;4.00;;
8349;SDS011;60699;48.946;8.412;2022-07-29T04:00:54;5.37;;;4.97;;
8349;SDS011;60699;48.946;8.412;2022-07-29T04:03:22;5.03;;;4.63;;
8349;SDS011;60699;48.946;8.412;2022-07-29T04:05:57;4.87;;;4.33;;
8349;SDS011;60699;48.946;8.412;2022-07-29T04:08:24;4.87;;;4.37;;
8349;SDS011;60699;48.946;8.412;2022-07-29T04:10:51;6.00;;;4.70;;
8349;SDS011;60699;48.946;8.412;2022-07-29T04:13:18;7.03;;;4.73;;
8349;SDS011;60699;48.946;8.412;2022-07-29T04:15:45;4.50;;;4.20;;
8349;SDS011;60699;48.946;8.412;2022-07-29T04:18:14;5.20;;;4.67;;
8349;SDS011;60699;48.946;8.412;2022-07-29T04:20:41;6.13;;;5.57;;
8349;SDS011;60699;48.946;8.412;2022-07-29T04:23:08;6.33;;;5.73;;
8349;SDS011;60699;48.946;8.412;2022-07-29T04:25:36;5.77;;;4.97;;
8349;SDS011;60699;48.946;8.412;2022-07-29T04:28:04;6.43;;;5.93;;
8349;SDS011;60699;48.946;8.412;2022-07-29T04:30:31;5.43;;;4.93;;
8349;SDS011;60699;48.946;8.412;2022-07-29T04:32:59;5.17;;;4.67;;
8349;SDS011;60699;48.946;8.412;2022-07-29T04:35:28;5.83;;;5.03;;
8349;SDS011;60699;48.946;8.412;2022-07-29T04:37:55;5.77;;;5.37;;
8349;SDS011;60699;48.946;8.412;2022-07-29T04:40:23;5.23;;;4.87;;
8349;SDS011;60699;48.946;8.412;2022-07-29T04:42:50;6.23;;;4.73;;
8349;SDS011;60699;48.946;8.412;2022-07-29T04:45:17;7.53;;;5.10;;
8349;SDS011;60699;48.946;8.412;2022-07-29T04:47:44;5.30;;;4.80;;
8349;SDS011;60699;48.946;8.412;2022-07-29T04:50:11;6.43;;;5.00;;
8349;SDS011;60699;48.946;8.412;2022-07-29T04:52:39;5.20;;;4.80;;
8349;SDS011;60699;48.946;8.412;2022-07-29T04:55:07;5.53;;;5.03;;
8349;SDS011;60699;48.946;8.412;2022-07-29T04:57:34;5.57;;;5.07;;
8349;SDS011;60699;48.946;8.412;2022-07-29T05:00:03;5.40;;;4.83;;
8349;SDS011;60699;48.946;8.412;2022-07-29T05:02:30;5.43;;;5.03;;
8349;SDS011;60699;48.946;8.412;2022-07-29T05:04:57;5.73;;;5.20;;
8349;SDS011;60699;48.946;8.412;2022-07-29T05:07:24;6.23;;;5.27;;
8349;SDS011;60699;48.946;8.412;2022-07-29T05:09:52;7.47;;;5.43;;
8349;SDS011;60699;48.946;8.412;2022-07-29T05:12:21;6.23;;;5.63;;
8349;SDS011;60699;48.946;8.412;2022-07-29T05:14:48;7.30;;;6.73;;
8349;SDS011;60699;48.946;8.412;2022-07-29T05:17:15;5.20;;;4.80;;
8349;SDS011;60699;48.946;8.412;2022-07-29T05:19:43;6.63;;;6.00;;
8349;SDS011;60699;48.946;8.412;2022-07-29T05:22:10;7.47;;;6.70;;
8349;SDS011;60699;48.946;8.412;2022-07-29T05:24:37;5.83;;;5.23;;
8349;SDS011;60699;48.946;8.412;2022-07-29T05:27:05;6.67;;;5.97;;
8349;SDS011;60699;48.946;8.412;2022-07-29T05:29:32;6.57;;;5.93;;
8349;SDS011;60699;48.946;8.412;2022-07-29T05:31:59;6.97;;;6.37;;
8349;SDS011;60699;48.946;8.412;2022-07-29T05:34:26;6.63;;;5.80;;
8349;SDS011;60699;48.946;8.412;2022-07-29T05:36:53;6.13;;;5.60;;
8349;SDS011;60699;48.946;8.412;2022-07-29T05:39:20;6.53;;;5.93;;
8349;SDS011;60699;48.946;8.412;2022-07-29T05:41:47;8.90;;;5.60;;
8349;SDS011;60699;48.946;8.412;2022-07-29T05:44:16;6.33;;;5.80;;
8349;SDS011;60699;48.946;8.412;2022-07-29T05:46:43;8.70;;;5.67;;
8349;SDS011;60699;48.946;8.412;2022-07-29T05:49:10;7.00;;;6.20;;
8349;SDS011;60699;48.946;8.412;2022-07-29T05:51:37;8.70;;;7.43;;
8349;SDS011;60699;48.946;8.412;2022-07-29T05:54:04;8.27;;;6.37;;
8349;SDS011;60699;48.946;8.412;2022-07-29T05:56:31;8.20;;;5.83;;
8349;SDS011;60699;48.946;8.412;2022-07-29T05:58:58;6.40;;;5.80;;
8349;SDS011;60699;48.946;8.412;2022-07-29T06:01:26;6.50;;;6.00;;
8349;SDS011;60699;48.946;8.412;2022-07-29T06:03:53;8.03;;;6.20;;
8349;SDS011;60699;48.946;8.412;2022-07-29T06:06:20;9.83;;;6.70;;
8349;SDS011;60699;48.946;8.412;2022-07-29T06:08:47;6.57;;;5.80;;
8349;SDS011;60699;48.946;8.412;2022-07-29T06:11:14;5.70;;;5.20;;
8349;SDS011;60699;48.946;8.412;2022-07-29T06:13:41;5.37;;;4.87;;
8349;SDS011;60699;48.946;8.412;2022-07-29T06:16:08;6.07;;;5.33;;
8349;SDS011;60699;48.946;8.412;2022-07-29T06:18:37;6.53;;;5.90;;
8349;SDS011;60699;48.946;8.412;2022-07-29T06:21:06;5.60;;;5.03;;
8349;SDS011;60699;48.946;8.412;2022-07-29T06:23:34;10.60;;;5.23;;
8349;SDS011;60699;48.946;8.412;2022-07-29T06:26:01;5.93;;;5.37;;
8349;SDS011;60699;48.946;8.412;2022-07-29T06:28:28;5.57;;;5.10;;
8349;SDS011;60699;48.946;8.412;2022-07-29T06:30:55;5.33;;;4.83;;
8349;SDS011;60699;48.946;8.412;2022-07-29T06:33:22;5.77;;;5.10;;
8349;SDS011;60699;48.946;8.412;2022-07-29T06:35:50;6.10;;;5.40;;
8349;SDS011;60699;48.946;8.412;2022-07-29T06:38:18;5.93;;;5.20;;
8349;SDS011;60699;48.946;8.412;2022-07-29T06:40:45;6.73;;;5.37;;
8349;SDS011;60699;48.946;8.412;2022-07-29T06:43:30;5.97;;;5.40;;
8349;SDS011;60699;48.946;8.412;2022-07-29T06:46:02;6.10;;;4.80;;
8349;SDS011;60699;48.946;8.412;2022-07-29T06:48:29;5.07;;;4.57;;
8349;SDS011;60699;48.946;8.412;2022-07-29T06:50:57;6.10;;;5.60;;
8349;SDS011;60699;48.946;8.412;2022-07-29T06:53:26;5.93;;;5.40;;
8349;SDS011;60699;48.946;8.412;2022-07-29T06:55:53;5.53;;;5.03;;
8349;SDS011;60699;48.946;8.412;2022-07-29T06:58:20;5.60;;;5.10;;
8349;SDS011;60699;48.946;8.412;2022-07-29T07:00:47;7.80;;;5.70;;
8349;SDS011;60699;48.946;8.412;2022-07-29T07:03:14;4.90;;;4.50;;
8349;SDS011;60699;48.946;8.412;2022-07-29T07:05:42;7.20;;;5.00;;
8349;SDS011;60699;48.946;8.412;2022-07-29T07:08:10;5.87;;;5.27;;
8349;SDS011;60699;48.946;8.412;2022-07-29T07:10:37;5.50;;;5.00;;
8349;SDS011;60699;48.946;8.412;2022-07-29T07:13:05;4.90;;;4.50;;
8349;SDS011;60699;48.946;8.412;2022-07-29T07:15:32;4.20;;;3.87;;
8349;SDS011;60699;48.946;8.412;2022-07-29T07:17:59;6.30;;;4.97;;
8349;SDS011;60699;48.946;8.412;2022-07-29T07:20:26;5.03;;;4.47;;
8349;SDS011;60699;48.946;8.412;2022-07-29T07:22:53;5.40;;;5.00;;
8349;SDS011;60699;48.946;8.412;2022-07-29T07:25:24;4.97;;;4.53;;
8349;SDS011;60699;48.946;8.412;2022-07-29T07:27:51;10.17;;;5.57;;
8349;SDS011;60699;48.946;8.412;2022-07-29T07:30:18;6.13;;;4.50;;
8349;SDS011;60699;48.946;8.412;2022-07-29T07:32:46;5.50;;;5.00;;
8349;SDS011;60699;48.946;8.412;2022-07-29T07:35:13;6.20;;;5.70;;
8349;SDS011;60699;48.946;8.412;2022-07-29T07:37:40;7.23;;;4.90;;
8349;SDS011;60699;48.946;8.412;2022-07-29T07:40:08;5.50;;;5.00;;
8349;SDS011;60699;48.946;8.412;2022-07-29T07:42:37;5.40;;;4.90;;
8349;SDS011;60699;48.946;8.412;2022-07-29T07:45:05;5.70;;;5.30;;
8349;SDS011;60699;48.946;8.412;2022-07-29T07:47:34;5.50;;;5.00;;
8349;SDS011;60699;48.946;8.412;2022-07-29T07:50:01;4.97;;;4.47;;
8349;SDS011;60699;48.946;8.412;2022-07-29T07:52:28;5.10;;;4.70;;
8349;SDS011;60699;48.946;8.412;2022-07-29T07:54:55;4.60;;;4.30;;
8349;SDS011;60699;48.946;8.412;2022-07-29T07:57:22;5.23;;;4.73;;
8349;SDS011;60699;48.946;8.412;2022-07-29T07:59:50;4.30;;;4.00;;
8349;SDS011;60699;48.946;8.412;2022-07-29T08:02:17;5.07;;;4.57;;
8349;SDS011;60699;48.946;8.412;2022-07-29T08:04:44;5.00;;;4.60;;
8349;SDS011;60699;48.946;8.412;2022-07-29T08:07:11;5.03;;;4.40;;
8349;SDS011;60699;48.946;8.412;2022-07-29T08:09:39;5.83;;;3.90;;
8349;SDS011;60699;48.946;8.412;2022-07-29T08:12:07;5.17;;;4.53;;
8349;SDS011;60699;48.946;8.412;2022-07-29T08:14:34;6.87;;;4.67;;
8349;SDS011;60699;48.946;8.412;2022-07-29T08:17:02;5.37;;;4.30;;
8349;SDS011;60699;48.946;8.412;2022-07-29T08:19:29;6.73;;;4.70;;
8349;SDS011;60699;48.946;8.412;2022-07-29T08:21:56;4.83;;;4.43;;
8349;SDS011;60699;48.946;8.412;2022-07-29T08:24:24;4.10;;;3.80;;
8349;SDS011;60699;48.946;8.412;2022-07-29T08:27:11;4.07;;;3.77;;
8349;SDS011;60699;48.946;8.412;2022-07-29T08:29:38;4.90;;;4.50;;
8349;SDS011;60699;48.946;8.412;2022-07-29T08:32:07;4.80;;;4.50;;
8349;SDS011;60699;48.946;8.412;2022-07-29T08:34:34;4.00;;;3.70;;
8349;SDS011;60699;48.946;8.412;2022-07-29T08:37:01;5.17;;;3.90;;
8349;SDS011;60699;48.946;8.412;2022-07-29T08:39:28;4.60;;;4.30;;
8349;SDS011;60699;48.946;8.412;2022-07-29T08:41:55;4.33;;;3.97;;
8349;SDS011;60699;48.946;8.412;2022-07-29T08:44:23;4.17;;;3.87;;
8349;SDS011;60699;48.946;8.412;2022-07-29T08:46:51;4.27;;;3.87;;
8349;SDS011;60699;48.946;8.412;2022-07-29T08:49:20;5.47;;;4.30;;
8349;SDS011;60699;48.946;8.412;2022-07-29T08:51:47;6.27;;;4.10;;
8349;SDS011;60699;48.946;8.412;2022-07-29T08:54:16;3.97;;;3.50;;
8349;SDS011;60699;48.946;8.412;2022-07-29T08:56:43;5.50;;;4.07;;
8349;SDS011;60699;48.946;8.412;2022-07-29T08:59:11;7.40;;;3.97;;
8349;SDS011;60699;48.946;8.412;2022-07-29T09:01:39;4.80;;;4.07;;
8349;SDS011;60699;48.946;8.412;2022-07-29T09:04:10;5.10;;;4.40;;
8349;SDS011;60699;48.946;8.412;2022-07-29T09:06:39;5.40;;;3.93;;
8349;SDS011;60699;48.946;8.412;2022-07-29T09:09:08;4.30;;;4.00;;
8349;SDS011;60699;48.946;8.412;2022-07-29T09:11:35;6.40;;;4.50;;
8349;SDS011;60699;48.946;8.412;2022-07-29T09:14:02;4.43;;;4.03;;
8349;SDS011;60699;48.946;8.412;2022-07-29T09:16:43;6.50;;;4.40;;
8349;SDS011;60699;48.946;8.412;2022-07-29T09:19:15;5.57;;;5.10;;
8349;SDS011;60699;48.946;8.412;2022-07-29T09:21:47;4.10;;;3.73;;
8349;SDS011;60699;48.946;8.412;2022-07-29T09:24:27;4.80;;;4.40;;
8349;SDS011;60699;48.946;8.412;2022-07-29T09:26:54;4.73;;;4.33;;
8349;SDS011;60699;48.946;8.412;2022-07-29T09:29:22;5.23;;;3.67;;
8349;SDS011;60699;48.946;8.412;2022-07-29T09:31:50;4.80;;;4.40;;
8349;SDS011;60699;48.946;8.412;2022-07-29T09:34:24;5.77;;;5.20;;
8349;SDS011;60699;48.946;8.412;2022-07-29T09:36:53;4.97;;;4.47;;
8349;SDS011;60699;48.946;8.412;2022-07-29T09:39:26;4.40;;;4.00;;
8349;SDS011;60699;48.946;8.412;2022-07-29T09:41:54;4.53;;;4.13;;
8349;SDS011;60699;48.946;8.412;2022-07-29T09:44:22;4.30;;;3.93;;
8349;SDS011;60699;48.946;8.412;2022-07-29T09:46:57;5.67;;;3.73;;
8349;SDS011;60699;48.946;8.412;2022-07-29T09:49:24;5.97;;;4.30;;
8349;SDS011;60699;48.946;8.412;2022-07-29T09:52:04;5.27;;;4.47;;
8349;SDS011;60699;48.946;8.412;2022-07-29T09:54:32;8.70;;;4.00;;
8349;SDS011;60699;48.946;8.412;2022-07-29T09:57:03;4.90;;;4.50;;
8349;SDS011;60699;48.946;8.412;2022-07-29T09:59:31;4.37;;;4.07;;
8349;SDS011;60699;48.946;8.412;2022-07-29T10:01:58;5.20;;;4.47;;
8349;SDS011;60699;48.946;8.412;2022-07-29T10:04:36;5.70;;;4.73;;
8349;SDS011;60699;48.946;8.412;2022-07-29T10:07:05;5.07;;;4.53;;
8349;SDS011;60699;48.946;8.412;2022-07-29T10:09:32;4.70;;;4.30;;
8349;SDS011;60699;48.946;8.412;2022-07-29T10:12:03;5.13;;;4.73;;
8349;SDS011;60699;48.946;8.412;2022-07-29T10:14:31;6.13;;;4.63;;
8349;SDS011;60699;48.946;8.412;2022-07-29T10:16:59;4.57;;;4.20;;
8349;SDS011;60699;48.946;8.412;2022-07-29T10:19:28;3.97;;;3.73;;
8349;SDS011;60699;48.946;8.412;2022-07-29T10:21:56;8.67;;;4.50;;
8349;SDS011;60699;48.946;8.412;2022-07-29T10:24:25;4.53;;;4.20;;
8349;SDS011;60699;48.946;8.412;2022-07-29T10:26:53;5.60;;;4.23;;
8349;SDS011;60699;48.946;8.412;2022-07-29T10:29:21;5.67;;;4.90;;
8349;SDS011;60699;48.946;8.412;2022-07-29T10:31:49;4.53;;;4.00;;
8349;SDS011;60699;48.946;8.412;2022-07-29T10:34:23;4.80;;;4.40;;
8349;SDS011;60699;48.946;8.412;2022-07-29T10:37:00;4.60;;;4.00;;
8349;SDS011;60699;48.946;8.412;2022-07-29T10:39:36;5.10;;;4.60;;
8349;SDS011;60699;48.946;8.412;2022-07-29T10:42:08;4.43;;;4.00;;
8349;SDS011;60699;48.946;8.412;2022-07-29T10:44:39;6.03;;;4.10;;
8349;SDS011;60699;48.946;8.412;2022-07-29T10:47:06;3.60;;;3.30;;
8349;SDS011;60699;48.946;8.412;2022-07-29T10:49:34;7.13;;;3.83;;
8349;SDS011;60699;48.946;8.412;2022-07-29T10:52:03;4.03;;;3.53;;
8349;SDS011;60699;48.946;8.412;2022-07-29T10:54:41;6.50;;;4.37;;
8349;SDS011;60699;48.946;8.412;2022-07-29T10:57:13;3.80;;;3.60;;
8349;SDS011;60699;48.946;8.412;2022-07-29T10:59:40;7.50;;;4.37;;
8349;SDS011;60699;48.946;8.412;2022-07-29T11:04:59;3.77;;;3.47;;
8349;SDS011;60699;48.946;8.412;2022-07-29T11:07:28;4.00;;;3.60;;
8349;SDS011;60699;48.946;8.412;2022-07-29T11:12:48;3.50;;;3.30;;
8349;SDS011;60699;48.946;8.412;2022-07-29T11:15:16;3.30;;;3.10;;
8349;SDS011;60699;48.946;8.412;2022-07-29T11:20:38;5.17;;;3.20;;
8349;SDS011;60699;48.946;8.412;2022-07-29T11:23:23;2.83;;;2.63;;
8349;SDS011;60699;48.946;8.412;2022-07-29T11:28:37;3.47;;;3.20;;
8349;SDS011;60699;48.946;8.412;2022-07-29T11:31:06;3.40;;;3.17;;
8349;SDS011;60699;48.946;8.412;2022-07-29T11:33:35;3.60;;;3.30;;
8349;SDS011;60699;48.946;8.412;2022-07-29T11:36:07;3.07;;;2.77;;
8349;SDS011;60699;48.946;8.412;2022-07-29T11:38:35;2.60;;;2.40;;
8349;SDS011;60699;48.946;8.412;2022-07-29T11:41:22;4.70;;;3.00;;
8349;SDS011;60699;48.946;8.412;2022-07-29T11:43:50;2.57;;;2.47;;
8349;SDS011;60699;48.946;8.412;2022-07-29T11:49:00;4.17;;;2.83;;
8349;SDS011;60699;48.946;8.412;2022-07-29T11:51:27;2.47;;;2.37;;
8349;SDS011;60699;48.946;8.412;2022-07-29T11:53:54;2.70;;;2.50;;
8349;SDS011;60699;48.946;8.412;2022-07-29T11:56:22;3.40;;;2.67;;
8349;SDS011;60699;48.946;8.412;2022-07-29T11:58:51;2.60;;;2.50;;
8349;SDS011;60699;48.946;8.412;2022-07-29T12:01:27;2.83;;;2.60;;
8349;SDS011;60699;48.946;8.412;2022-07-29T12:04:03;2.73;;;2.53;;
8349;SDS011;60699;48.946;8.412;2022-07-29T12:06:31;3.20;;;2.83;;
8349;SDS011;60699;48.946;8.412;2022-07-29T12:08:58;3.33;;;3.00;;
8349;SDS011;60699;48.946;8.412;2022-07-29T12:11:26;3.57;;;2.80;;
8349;SDS011;60699;48.946;8.412;2022-07-29T12:13:54;6.57;;;3.43;;
8349;SDS011;60699;48.946;8.412;2022-07-29T12:16:22;4.00;;;2.93;;
8349;SDS011;60699;48.946;8.412;2022-07-29T12:18:54;4.00;;;3.70;;
8349;SDS011;60699;48.946;8.412;2022-07-29T12:21:21;3.00;;;2.80;;
8349;SDS011;60699;48.946;8.412;2022-07-29T12:23:51;5.20;;;3.00;;
8349;SDS011;60699;48.946;8.412;2022-07-29T12:26:19;3.23;;;3.00;;
8349;SDS011;60699;48.946;8.412;2022-07-29T12:28:46;3.93;;;3.00;;
8349;SDS011;60699;48.946;8.412;2022-07-29T12:31:15;4.20;;;3.07;;
8349;SDS011;60699;48.946;8.412;2022-07-29T12:33:42;4.83;;;4.03;;
8349;SDS011;60699;48.946;8.412;2022-07-29T12:36:18;3.53;;;3.00;;
8349;SDS011;60699;48.946;8.412;2022-07-29T12:38:45;3.67;;;3.00;;
8349;SDS011;60699;48.946;8.412;2022-07-29T12:41:12;3.53;;;3.23;;
8349;SDS011;60699;48.946;8.412;2022-07-29T12:43:47;3.33;;;3.10;;
8349;SDS011;60699;48.946;8.412;2022-07-29T12:46:19;3.47;;;3.17;;
8349;SDS011;60699;48.946;8.412;2022-07-29T12:48:49;4.03;;;3.00;;
8349;SDS011;60699;48.946;8.412;2022-07-29T12:51:25;3.23;;;3.00;;
8349;SDS011;60699;48.946;8.412;2022-07-29T12:54:01;4.20;;;2.87;;
8349;SDS011;60699;48.946;8.412;2022-07-29T12:56:29;4.50;;;2.90;;
8349;SDS011;60699;48.946;8.412;2022-07-29T12:58:56;3.23;;;3.03;;
8349;SDS011;60699;48.946;8.412;2022-07-29T13:01:24;2.80;;;2.43;;
8349;SDS011;60699;48.946;8.412;2022-07-29T13:03:52;3.20;;;2.90;;
8349;SDS011;60699;48.946;8.412;2022-07-29T13:06:28;3.17;;;2.97;;
8349;SDS011;60699;48.946;8.412;2022-07-29T13:08:59;2.90;;;2.70;;
8349;SDS011;60699;48.946;8.412;2022-07-29T13:11:27;5.40;;;3.10;;
8349;SDS011;60699;48.946;8.412;2022-07-29T13:13:54;2.90;;;2.70;;
8349;SDS011;60699;48.946;8.412;2022-07-29T13:16:21;3.03;;;2.80;;
8349;SDS011;60699;48.946;8.412;2022-07-29T13:18:54;6.17;;;3.03;;
8349;SDS011;60699;48.946;8.412;2022-07-29T13:21:29;2.50;;;2.40;;
8349;SDS011;60699;48.946;8.412;2022-07-29T13:23:56;3.03;;;2.60;;
8349;SDS011;60699;48.946;8.412;2022-07-29T13:26:23;3.50;;;2.90;;
8349;SDS011;60699;48.946;8.412;2022-07-29T13:28:50;3.13;;;2.93;;
8349;SDS011;60699;48.946;8.412;2022-07-29T13:31:17;2.50;;;2.30;;
8349;SDS011;60699;48.946;8.412;2022-07-29T13:33:44;3.47;;;2.63;;
8349;SDS011;60699;48.946;8.412;2022-07-29T13:36:14;3.60;;;2.30;;
8349;SDS011;60699;48.946;8.412;2022-07-29T13:38:41;2.87;;;2.67;;
8349;SDS011;60699;48.946;8.412;2022-07-29T13:41:08;6.73;;;2.57;;
8349;SDS011;60699;48.946;8.412;2022-07-29T13:43:35;3.17;;;2.87;;
8349;SDS011;60699;48.946;8.412;2022-07-29T13:46:02;2.03;;;1.93;;
8349;SDS011;60699;48.946;8.412;2022-07-29T13:48:29;2.93;;;2.73;;
8349;SDS011;60699;48.946;8.412;2022-07-29T13:50:56;2.70;;;2.50;;
8349;SDS011;60699;48.946;8.412;2022-07-29T13:53:24;2.63;;;2.43;;
8349;SDS011;60699;48.946;8.412;2022-07-29T13:55:52;2.40;;;2.30;;
8349;SDS011;60699;48.946;8.412;2022-07-29T13:58:19;6.00;;;2.80;;
8349;SDS011;60699;48.946;8.412;2022-07-29T14:00:46;3.00;;;2.70;;
8349;SDS011;60699;48.946;8.412;2022-07-29T14:03:13;2.83;;;2.63;;
8349;SDS011;60699;48.946;8.412;2022-07-29T14:05:40;3.23;;;2.73;;
8349;SDS011;60699;48.946;8.412;2022-07-29T14:08:07;2.10;;;2.00;;
8349;SDS011;60699;48.946;8.412;2022-07-29T14:10:36;2.60;;;2.40;;
8349;SDS011;60699;48.946;8.412;2022-07-29T14:13:03;4.13;;;3.70;;
8349;SDS011;60699;48.946;8.412;2022-07-29T14:15:30;2.90;;;2.70;;
8349;SDS011;60699;48.946;8.412;2022-07-29T14:17:57;3.23;;;2.93;;
8349;SDS011;60699;48.946;8.412;2022-07-29T14:20:24;6.30;;;2.80;;
8349;SDS011;60699;48.946;8.412;2022-07-29T14:22:53;2.47;;;2.27;;
8349;SDS011;60699;48.946;8.412;2022-07-29T14:25:20;3.60;;;2.90;;
8349;SDS011;60699;48.946;8.412;2022-07-29T14:27:48;3.07;;;2.60;;
8349;SDS011;60699;48.946;8.412;2022-07-29T14:30:15;3.13;;;2.83;;
8349;SDS011;60699;48.946;8.412;2022-07-29T14:32:42;2.73;;;2.63;;
8349;SDS011;60699;48.946;8.412;2022-07-29T14:35:09;2.67;;;2.47;;
8349;SDS011;60699;48.946;8.412;2022-07-29T14:37:36;5.27;;;3.10;;
8349;SDS011;60699;48.946;8.412;2022-07-29T14:40:04;2.23;;;2.13;;
8349;SDS011;60699;48.946;8.412;2022-07-29T14:42:31;5.13;;;2.43;;
8349;SDS011;60699;48.946;8.412;2022-07-29T14:45:00;2.90;;;2.70;;
8349;SDS011;60699;48.946;8.412;2022-07-29T14:47:27;3.93;;;2.53;;
8349;SDS011;60699;48.946;8.412;2022-07-29T14:49:54;6.20;;;2.70;;
8349;SDS011;60699;48.946;8.412;2022-07-29T14:52:21;2.70;;;2.50;;
8349;SDS011;60699;48.946;8.412;2022-07-29T14:54:48;2.40;;;2.20;;
8349;SDS011;60699;48.946;8.412;2022-07-29T14:57:15;3.43;;;3.00;;
8349;SDS011;60699;48.946;8.412;2022-07-29T14:59:42;2.60;;;2.40;;
8349;SDS011;60699;48.946;8.412;2022-07-29T15:02:11;3.40;;;2.47;;
8349;SDS011;60699;48.946;8.412;2022-07-29T15:04:38;3.73;;;2.67;;
8349;SDS011;60699;48.946;8.412;2022-07-29T15:07:05;3.00;;;2.60;;
8349;SDS011;60699;48.946;8.412;2022-07-29T15:09:33;2.57;;;2.40;;
8349;SDS011;60699;48.946;8.412;2022-07-29T15:12:00;2.67;;;2.47;;
8349;SDS011;60699;48.946;8.412;2022-07-29T15:14:27;3.17;;;2.80;;
8349;SDS011;60699;48.946;8.412;2022-07-29T15:16:55;2.23;;;2.10;;
8349;SDS011;60699;48.946;8.412;2022-07-29T15:19:23;3.00;;;2.80;;
8349;SDS011;60699;48.946;8.412;2022-07-29T15:21:50;2.47;;;2.27;;